sensor_id;sensor_type;location;lat;lon;timestamp;pressure;altitude;pressure_sealevel;temperature;humidity
46778;BME280;32536;47.128;8.746;2023-12-29T00:00:21;91897.53;;;9.23;52.21
46778;BME280;32536;47.128;8.746;2023-12-29T00:02:48;91894.47;;;9.24;51.82
46778;BME280;32536;47.128;8.746;2023-12-29T00:05:14;91889.53;;;9.23;52.14
46778;BME280;32536;47.128;8.746;2023-12-29T00:07:41;91881.88;;;9.21;51.97
46778;BME280;32536;47.128;8.746;2023-12-29T00:10:08;91881.13;;;9.17;51.59
46778;BME280;32536;47.128;8.746;2023-12-29T00:12:35;91872.72;;;9.15;51.75
46778;BME280;32536;47.128;8.746;2023-12-29T00:15:02;91863.97;;;9.11;51.43
46778;BME280;32536;47.128;8.746;2023-12-29T00:17:29;91853.31;;;9.04;51.39
46778;BME280;32536;47.128;8.746;2023-12-29T00:19:55;91855.25;;;9.00;51.39
46778;BME280;32536;47.128;8.746;2023-12-29T00:22:22;91841.91;;;8.96;51.36
46778;BME280;32536;47.128;8.746;2023-12-29T00:24:51;91847.28;;;8.92;51.28
46778;BME280;32536;47.128;8.746;2023-12-29T00:27:17;91852.63;;;8.89;51.22
46778;BME280;32536;47.128;8.746;2023-12-29T00:29:53;91843.09;;;8.84;51.25
46778;BME280;32536;47.128;8.746;2023-12-29T00:32:20;91847.66;;;8.84;51.37
46778;BME280;32536;47.128;8.746;2023-12-29T00:34:47;91830.91;;;8.79;51.40
46778;BME280;32536;47.128;8.746;2023-12-29T00:37:14;91845.41;;;8.78;51.38
46778;BME280;32536;47.128;8.746;2023-12-29T00:39:40;91842.75;;;8.75;51.47
46778;BME280;32536;47.128;8.746;2023-12-29T00:42:07;91849.63;;;8.76;51.76
46778;BME280;32536;47.128;8.746;2023-12-29T00:44:34;91857.22;;;8.81;51.87
46778;BME280;32536;47.128;8.746;2023-12-29T00:47:01;91859.50;;;8.86;51.96
46778;BME280;32536;47.128;8.746;2023-12-29T00:49:28;91846.91;;;8.87;51.98
46778;BME280;32536;47.128;8.746;2023-12-29T00:51:54;91854.53;;;8.85;52.00
46778;BME280;32536;47.128;8.746;2023-12-29T00:54:21;91850.38;;;8.76;51.99
46778;BME280;32536;47.128;8.746;2023-12-29T00:56:49;91839.72;;;8.73;52.32
46778;BME280;32536;47.128;8.746;2023-12-29T00:59:18;91832.06;;;8.75;52.49
46778;BME280;32536;47.128;8.746;2023-12-29T01:01:45;91834.38;;;8.76;52.49
46778;BME280;32536;47.128;8.746;2023-12-29T01:04:12;91840.03;;;8.82;52.56
46778;BME280;32536;47.128;8.746;2023-12-29T01:06:39;91833.94;;;8.85;52.57
46778;BME280;32536;47.128;8.746;2023-12-29T01:09:06;91840.41;;;8.91;52.22
46778;BME280;32536;47.128;8.746;2023-12-29T01:11:34;91845.72;;;8.95;52.30
46778;BME280;32536;47.128;8.746;2023-12-29T01:14:01;91839.97;;;9.00;52.25
46778;BME280;32536;47.128;8.746;2023-12-29T01:16:28;91835.38;;;9.01;52.39
46778;BME280;32536;47.128;8.746;2023-12-29T01:18:55;91828.50;;;9.03;52.57
46778;BME280;32536;47.128;8.746;2023-12-29T01:21:21;91830.41;;;9.03;52.06
46778;BME280;32536;47.128;8.746;2023-12-29T01:23:48;91826.22;;;9.02;52.02
46778;BME280;32536;47.128;8.746;2023-12-29T01:26:15;91828.53;;;9.00;52.44
46778;BME280;32536;47.128;8.746;2023-12-29T01:28:42;91839.22;;;9.00;52.21
46778;BME280;32536;47.128;8.746;2023-12-29T01:31:08;91835.38;;;9.01;52.29
46778;BME280;32536;47.128;8.746;2023-12-29T01:33:36;91840.38;;;8.99;52.19
46778;BME280;32536;47.128;8.746;2023-12-29T01:36:03;91825.50;;;8.97;52.18
46778;BME280;32536;47.128;8.746;2023-12-29T01:38:30;91824.72;;;8.97;52.48
46778;BME280;32536;47.128;8.746;2023-12-29T01:40:57;91833.09;;;8.99;52.59
46778;BME280;32536;47.128;8.746;2023-12-29T01:43:24;91843.38;;;9.04;52.15
46778;BME280;32536;47.128;8.746;2023-12-29T01:45:51;91850.25;;;9.05;52.29
46778;BME280;32536;47.128;8.746;2023-12-29T01:48:17;91846.44;;;9.03;52.47
46778;BME280;32536;47.128;8.746;2023-12-29T01:50:44;91841.13;;;8.99;52.56
46778;BME280;32536;47.128;8.746;2023-12-29T01:53:11;91839.25;;;8.96;52.55
46778;BME280;32536;47.128;8.746;2023-12-29T01:55:38;91859.47;;;8.93;52.61
46778;BME280;32536;47.128;8.746;2023-12-29T01:58:06;91850.28;;;8.98;52.58
46778;BME280;32536;47.128;8.746;2023-12-29T02:00:33;91839.97;;;9.00;52.85
46778;BME280;32536;47.128;8.746;2023-12-29T02:03:00;91833.88;;;9.00;52.51
46778;BME280;32536;47.128;8.746;2023-12-29T02:05:28;91834.25;;;8.98;52.11
46778;BME280;32536;47.128;8.746;2023-12-29T02:07:55;91829.69;;;8.99;52.14
46778;BME280;32536;47.128;8.746;2023-12-29T02:10:23;91842.66;;;9.00;52.39
46778;BME280;32536;47.128;8.746;2023-12-29T02:12:50;91838.84;;;9.01;52.41
46778;BME280;32536;47.128;8.746;2023-12-29T02:15:23;91852.19;;;9.05;52.37
46778;BME280;32536;47.128;8.746;2023-12-29T02:17:55;91853.72;;;9.06;51.96
46778;BME280;32536;47.128;8.746;2023-12-29T02:20:26;91847.97;;;9.07;52.51
46778;BME280;32536;47.128;8.746;2023-12-29T02:22:53;91842.63;;;9.04;52.26
46778;BME280;32536;47.128;8.746;2023-12-29T02:25:20;91848.38;;;9.02;52.64
46778;BME280;32536;47.128;8.746;2023-12-29T02:28:20;91830.03;;;9.01;51.37
46778;BME280;32536;47.128;8.746;2023-12-29T02:30:59;91838.03;;;9.04;51.80
46778;BME280;32536;47.128;8.746;2023-12-29T02:33:36;91827.34;;;9.08;52.62
46778;BME280;32536;47.128;8.746;2023-12-29T02:36:06;91824.66;;;9.11;52.59
46778;BME280;32536;47.128;8.746;2023-12-29T02:38:33;91834.16;;;9.16;52.45
46778;BME280;32536;47.128;8.746;2023-12-29T02:41:01;91834.91;;;9.17;52.48
46778;BME280;32536;47.128;8.746;2023-12-29T02:43:27;91830.34;;;9.17;51.95
46778;BME280;32536;47.128;8.746;2023-12-29T02:45:56;91821.94;;;9.19;52.13
46778;BME280;32536;47.128;8.746;2023-12-29T02:48:23;91828.81;;;9.16;52.02
46778;BME280;32536;47.128;8.746;2023-12-29T02:50:50;91840.31;;;9.13;51.84
46778;BME280;32536;47.128;8.746;2023-12-29T02:53:16;91838.41;;;9.10;51.88
46778;BME280;32536;47.128;8.746;2023-12-29T02:55:43;91841.06;;;9.10;52.17
46778;BME280;32536;47.128;8.746;2023-12-29T02:58:10;91833.47;;;9.05;52.10
46778;BME280;32536;47.128;8.746;2023-12-29T03:00:37;91825.44;;;9.05;51.79
46778;BME280;32536;47.128;8.746;2023-12-29T03:03:03;91834.63;;;9.00;52.23
46778;BME280;32536;47.128;8.746;2023-12-29T03:05:31;91838.06;;;8.97;51.77
46778;BME280;32536;47.128;8.746;2023-12-29T03:07:57;91833.91;;;8.96;51.70
46778;BME280;32536;47.128;8.746;2023-12-29T03:10:24;91830.84;;;8.97;52.05
46778;BME280;32536;47.128;8.746;2023-12-29T03:12:51;91833.09;;;8.99;51.71
46778;BME280;32536;47.128;8.746;2023-12-29T03:15:18;91823.19;;;9.00;52.04
46778;BME280;32536;47.128;8.746;2023-12-29T03:17:44;91834.25;;;8.98;51.96
46778;BME280;32536;47.128;8.746;2023-12-29T03:20:11;91837.31;;;8.96;51.60
46778;BME280;32536;47.128;8.746;2023-12-29T03:22:38;91837.69;;;8.99;51.68
46778;BME280;32536;47.128;8.746;2023-12-29T03:25:05;91827.75;;;8.99;51.88
46778;BME280;32536;47.128;8.746;2023-12-29T03:27:32;91828.16;;;9.01;52.17
46778;BME280;32536;47.128;8.746;2023-12-29T03:30:02;91826.63;;;9.00;51.45
46778;BME280;32536;47.128;8.746;2023-12-29T03:32:29;91822.81;;;9.01;51.83
46778;BME280;32536;47.128;8.746;2023-12-29T03:34:56;91825.88;;;9.00;51.93
46778;BME280;32536;47.128;8.746;2023-12-29T03:37:23;91830.44;;;8.99;52.11
46778;BME280;32536;47.128;8.746;2023-12-29T03:39:50;91820.16;;;8.97;52.38
46778;BME280;32536;47.128;8.746;2023-12-29T03:42:16;91817.84;;;9.00;52.09
46778;BME280;32536;47.128;8.746;2023-12-29T03:44:43;91820.13;;;9.01;52.29
46778;BME280;32536;47.128;8.746;2023-12-29T03:47:10;91820.13;;;9.05;52.04
46778;BME280;32536;47.128;8.746;2023-12-29T03:49:36;91822.41;;;9.03;52.12
46778;BME280;32536;47.128;8.746;2023-12-29T03:52:03;91822.41;;;8.99;52.34
46778;BME280;32536;47.128;8.746;2023-12-29T03:54:30;91832.34;;;9.02;52.40
46778;BME280;32536;47.128;8.746;2023-12-29T03:56:57;91820.47;;;9.03;52.55
46778;BME280;32536;47.128;8.746;2023-12-29T03:59:24;91820.88;;;9.02;52.47
46778;BME280;32536;47.128;8.746;2023-12-29T04:01:50;91818.97;;;9.02;52.53
46778;BME280;32536;47.128;8.746;2023-12-29T04:04:17;91829.28;;;9.04;52.75
46778;BME280;32536;47.128;8.746;2023-12-29T04:06:44;91826.59;;;9.07;52.64
46778;BME280;32536;47.128;8.746;2023-12-29T04:09:10;91815.50;;;9.09;52.31
46778;BME280;32536;47.128;8.746;2023-12-29T04:11:37;91811.69;;;9.06;52.15
46778;BME280;32536;47.128;8.746;2023-12-29T04:14:04;91827.38;;;9.01;52.17
46778;BME280;32536;47.128;8.746;2023-12-29T04:16:31;91833.88;;;9.00;51.99
46778;BME280;32536;47.128;8.746;2023-12-29T04:18:57;91828.56;;;8.92;52.43
46778;BME280;32536;47.128;8.746;2023-12-29T04:21:24;91829.34;;;8.86;52.16
46778;BME280;32536;47.128;8.746;2023-12-29T04:23:51;91826.28;;;8.84;52.10
46778;BME280;32536;47.128;8.746;2023-12-29T04:26:18;91828.63;;;8.81;52.41
46778;BME280;32536;47.128;8.746;2023-12-29T04:28:44;91820.97;;;8.80;52.27
46778;BME280;32536;47.128;8.746;2023-12-29T04:31:11;91821.75;;;8.77;52.35
46778;BME280;32536;47.128;8.746;2023-12-29T04:33:38;91813.75;;;8.73;52.46
46778;BME280;32536;47.128;8.746;2023-12-29T04:36:05;91822.91;;;8.72;52.38
46778;BME280;32536;47.128;8.746;2023-12-29T04:38:32;91835.13;;;8.70;52.22
46778;BME280;32536;47.128;8.746;2023-12-29T04:40:59;91841.63;;;8.69;52.13
46778;BME280;32536;47.128;8.746;2023-12-29T04:43:25;91814.16;;;8.68;52.43
46778;BME280;32536;47.128;8.746;2023-12-29T04:45:52;91817.63;;;8.58;52.06
46778;BME280;32536;47.128;8.746;2023-12-29T04:48:19;91813.81;;;8.52;52.46
46778;BME280;32536;47.128;8.746;2023-12-29T04:50:46;91818.03;;;8.49;52.46
46778;BME280;32536;47.128;8.746;2023-12-29T04:53:12;91817.66;;;8.47;52.55
46778;BME280;32536;47.128;8.746;2023-12-29T04:55:39;91829.09;;;8.44;52.33
46778;BME280;32536;47.128;8.746;2023-12-29T04:58:06;91830.97;;;8.43;52.44
46778;BME280;32536;47.128;8.746;2023-12-29T05:00:33;91820.28;;;8.43;52.85
46778;BME280;32536;47.128;8.746;2023-12-29T05:02:59;91825.63;;;8.43;52.73
46778;BME280;32536;47.128;8.746;2023-12-29T05:05:26;91830.63;;;8.45;52.71
46778;BME280;32536;47.128;8.746;2023-12-29T05:07:53;91826.81;;;8.42;52.56
46778;BME280;32536;47.128;8.746;2023-12-29T05:10:19;91824.50;;;8.37;53.17
46778;BME280;32536;47.128;8.746;2023-12-29T05:12:46;91832.50;;;8.44;53.06
46778;BME280;32536;47.128;8.746;2023-12-29T05:15:13;91834.84;;;8.49;52.45
46778;BME280;32536;47.128;8.746;2023-12-29T05:17:40;91822.22;;;8.54;53.00
46778;BME280;32536;47.128;8.746;2023-12-29T05:20:07;91825.25;;;8.59;53.04
46778;BME280;32536;47.128;8.746;2023-12-29T05:22:34;91820.25;;;8.69;53.21
46778;BME280;32536;47.128;8.746;2023-12-29T05:25:02;91830.91;;;8.79;53.13
46778;BME280;32536;47.128;8.746;2023-12-29T05:27:31;91828.94;;;8.91;53.16
46778;BME280;32536;47.128;8.746;2023-12-29T05:30:10;91820.47;;;9.07;52.92
46778;BME280;32536;47.128;8.746;2023-12-29T05:32:38;91821.16;;;9.22;53.00
46778;BME280;32536;47.128;8.746;2023-12-29T05:35:05;91819.22;;;9.29;52.83
46778;BME280;32536;47.128;8.746;2023-12-29T05:37:32;91830.97;;;9.39;52.86
46778;BME280;32536;47.128;8.746;2023-12-29T05:39:58;91817.16;;;9.48;52.56
46778;BME280;32536;47.128;8.746;2023-12-29T05:42:25;91816.34;;;9.58;53.17
46778;BME280;32536;47.128;8.746;2023-12-29T05:44:52;91814.38;;;9.66;52.44
46778;BME280;32536;47.128;8.746;2023-12-29T05:47:19;91817.78;;;9.70;52.54
46778;BME280;32536;47.128;8.746;2023-12-29T05:49:46;91813.16;;;9.78;52.72
46778;BME280;32536;47.128;8.746;2023-12-29T05:52:12;91821.44;;;9.91;53.08
46778;BME280;32536;47.128;8.746;2023-12-29T05:54:39;91818.66;;;10.05;52.54
46778;BME280;32536;47.128;8.746;2023-12-29T05:57:06;91817.06;;;10.12;52.63
46778;BME280;32536;47.128;8.746;2023-12-29T05:59:33;91815.47;;;10.18;52.67
46778;BME280;32536;47.128;8.746;2023-12-29T06:01:59;91813.91;;;10.20;52.56
46778;BME280;32536;47.128;8.746;2023-12-29T06:04:26;91806.22;;;10.26;52.94
46778;BME280;32536;47.128;8.746;2023-12-29T06:06:53;91810.38;;;10.31;52.99
46778;BME280;32536;47.128;8.746;2023-12-29T06:09:20;91808.84;;;10.33;52.43
46778;BME280;32536;47.128;8.746;2023-12-29T06:11:46;91806.53;;;10.35;52.36
46778;BME280;32536;47.128;8.746;2023-12-29T06:14:13;91803.84;;;10.39;53.19
46778;BME280;32536;47.128;8.746;2023-12-29T06:16:40;91804.91;;;10.45;52.53
46778;BME280;32536;47.128;8.746;2023-12-29T06:19:08;91811.34;;;10.51;52.68
46778;BME280;32536;47.128;8.746;2023-12-29T06:21:42;91807.13;;;10.54;52.06
46778;BME280;32536;47.128;8.746;2023-12-29T06:24:10;91813.22;;;10.54;52.74
46778;BME280;32536;47.128;8.746;2023-12-29T06:26:39;91819.75;;;10.53;52.42
46778;BME280;32536;47.128;8.746;2023-12-29T06:29:09;91813.63;;;10.53;53.17
46778;BME280;32536;47.128;8.746;2023-12-29T06:31:40;91819.75;;;10.53;52.57
46778;BME280;32536;47.128;8.746;2023-12-29T06:34:07;91823.16;;;10.57;52.55
46778;BME280;32536;47.128;8.746;2023-12-29T06:36:34;91825.38;;;10.63;52.88
46778;BME280;32536;47.128;8.746;2023-12-29T06:39:01;91823.44;;;10.67;53.09
46778;BME280;32536;47.128;8.746;2023-12-29T06:41:28;91820.38;;;10.68;53.24
46778;BME280;32536;47.128;8.746;2023-12-29T06:43:55;91830.66;;;10.70;52.19
46778;BME280;32536;47.128;8.746;2023-12-29T06:46:21;91824.56;;;10.69;52.88
46778;BME280;32536;47.128;8.746;2023-12-29T06:48:48;91828.41;;;10.68;52.71
46778;BME280;32536;47.128;8.746;2023-12-29T06:51:16;91833.38;;;10.66;52.68
46778;BME280;32536;47.128;8.746;2023-12-29T06:53:48;91841.44;;;10.66;52.41
46778;BME280;32536;47.128;8.746;2023-12-29T06:56:15;91837.63;;;10.64;53.09
46778;BME280;32536;47.128;8.746;2023-12-29T06:58:44;91838.03;;;10.62;52.91
46778;BME280;32536;47.128;8.746;2023-12-29T07:01:11;91826.19;;;10.60;53.07
46778;BME280;32536;47.128;8.746;2023-12-29T07:03:38;91830.06;;;10.55;53.29
46778;BME280;32536;47.128;8.746;2023-12-29T07:06:05;91825.88;;;10.54;52.93
46778;BME280;32536;47.128;8.746;2023-12-29T07:08:32;91840.00;;;10.54;53.37
46778;BME280;32536;47.128;8.746;2023-12-29T07:10:59;91827.03;;;10.53;52.86
46778;BME280;32536;47.128;8.746;2023-12-29T07:13:26;91826.28;;;10.52;53.15
46778;BME280;32536;47.128;8.746;2023-12-29T07:15:53;91837.03;;;10.49;53.52
46778;BME280;32536;47.128;8.746;2023-12-29T07:18:20;91848.53;;;10.46;53.04
46778;BME280;32536;47.128;8.746;2023-12-29T07:20:47;91841.63;;;10.45;52.78
46778;BME280;32536;47.128;8.746;2023-12-29T07:23:13;91842.03;;;10.43;53.05
46778;BME280;32536;47.128;8.746;2023-12-29T07:25:40;91847.41;;;10.43;53.39
46778;BME280;32536;47.128;8.746;2023-12-29T07:28:07;91848.94;;;10.44;52.77
46778;BME280;32536;47.128;8.746;2023-12-29T07:30:34;91853.88;;;10.46;53.28
46778;BME280;32536;47.128;8.746;2023-12-29T07:33:01;91853.47;;;10.47;53.46
46778;BME280;32536;47.128;8.746;2023-12-29T07:35:28;91861.88;;;10.49;53.82
46778;BME280;32536;47.128;8.746;2023-12-29T07:37:55;91858.78;;;10.51;53.20
46778;BME280;32536;47.128;8.746;2023-12-29T07:40:22;91864.94;;;10.51;53.79
46778;BME280;32536;47.128;8.746;2023-12-29T07:42:49;91856.50;;;10.53;53.45
46778;BME280;32536;47.128;8.746;2023-12-29T07:45:17;91864.13;;;10.54;53.74
46778;BME280;32536;47.128;8.746;2023-12-29T07:47:44;91859.94;;;10.53;53.60
46778;BME280;32536;47.128;8.746;2023-12-29T07:50:10;91859.94;;;10.53;53.62
46778;BME280;32536;47.128;8.746;2023-12-29T07:52:37;91863.00;;;10.52;54.10
46778;BME280;32536;47.128;8.746;2023-12-29T07:55:04;91864.94;;;10.51;53.83
46778;BME280;32536;47.128;8.746;2023-12-29T07:57:31;91863.00;;;10.52;53.81
46778;BME280;32536;47.128;8.746;2023-12-29T08:02:44;91875.28;;;10.49;54.13
46778;BME280;32536;47.128;8.746;2023-12-29T08:05:11;91876.06;;;10.50;53.41
46778;BME280;32536;47.128;8.746;2023-12-29T08:07:37;91882.56;;;10.49;53.93
46778;BME280;32536;47.128;8.746;2023-12-29T08:10:05;91887.13;;;10.48;53.68
46778;BME280;32536;47.128;8.746;2023-12-29T08:12:33;91886.38;;;10.48;53.94
46778;BME280;32536;47.128;8.746;2023-12-29T08:15:02;91889.47;;;10.46;53.96
46778;BME280;32536;47.128;8.746;2023-12-29T08:17:29;91885.63;;;10.47;54.08
46778;BME280;32536;47.128;8.746;2023-12-29T08:20:15;91890.22;;;10.47;54.04
46778;BME280;32536;47.128;8.746;2023-12-29T08:22:42;91887.50;;;10.50;53.49
46778;BME280;32536;47.128;8.746;2023-12-29T08:25:09;91886.34;;;10.51;53.64
46778;BME280;32536;47.128;8.746;2023-12-29T08:27:36;91881.41;;;10.50;54.38
46778;BME280;32536;47.128;8.746;2023-12-29T08:30:21;91871.47;;;10.47;54.35
46778;BME280;32536;47.128;8.746;2023-12-29T08:32:48;91874.13;;;10.50;53.96
46778;BME280;32536;47.128;8.746;2023-12-29T08:35:15;91875.63;;;10.51;54.12
46778;BME280;32536;47.128;8.746;2023-12-29T08:37:42;91865.69;;;10.52;54.05
46778;BME280;32536;47.128;8.746;2023-12-29T08:40:09;91863.78;;;10.52;53.85
46778;BME280;32536;47.128;8.746;2023-12-29T08:42:36;91866.78;;;10.54;53.67
46778;BME280;32536;47.128;8.746;2023-12-29T08:45:03;91869.09;;;10.56;53.72
46778;BME280;32536;47.128;8.746;2023-12-29T08:47:30;91856.09;;;10.54;53.62
46778;BME280;32536;47.128;8.746;2023-12-29T08:49:57;91863.03;;;10.48;54.14
46778;BME280;32536;47.128;8.746;2023-12-29T08:52:24;91865.00;;;10.44;53.70
46778;BME280;32536;47.128;8.746;2023-12-29T08:54:51;91856.22;;;10.44;53.92
46778;BME280;32536;47.128;8.746;2023-12-29T08:57:17;91853.53;;;10.44;54.04
46778;BME280;32536;47.128;8.746;2023-12-29T08:59:44;91857.75;;;10.41;53.77
46778;BME280;32536;47.128;8.746;2023-12-29T09:02:11;91869.25;;;10.38;54.01
46778;BME280;32536;47.128;8.746;2023-12-29T09:04:38;91855.09;;;10.37;53.78
46778;BME280;32536;47.128;8.746;2023-12-29T09:07:04;91851.66;;;10.37;53.98
46778;BME280;32536;47.128;8.746;2023-12-29T09:09:31;91865.06;;;10.37;54.55
46778;BME280;32536;47.128;8.746;2023-12-29T09:11:58;91864.66;;;10.38;53.98
46778;BME280;32536;47.128;8.746;2023-12-29T09:14:25;91856.25;;;10.40;54.24
46778;BME280;32536;47.128;8.746;2023-12-29T09:16:51;91853.94;;;10.38;53.99
46778;BME280;32536;47.128;8.746;2023-12-29T09:19:18;91870.03;;;10.31;54.48
46778;BME280;32536;47.128;8.746;2023-12-29T09:21:45;91865.50;;;10.28;54.04
46778;BME280;32536;47.128;8.746;2023-12-29T09:24:12;91867.78;;;10.30;54.63
46778;BME280;32536;47.128;8.746;2023-12-29T09:26:38;91865.88;;;10.30;54.43
46778;BME280;32536;47.128;8.746;2023-12-29T09:29:05;91872.69;;;10.35;54.61
46778;BME280;32536;47.128;8.746;2023-12-29T09:31:32;91869.25;;;10.38;54.16
46778;BME280;32536;47.128;8.746;2023-12-29T09:33:59;91874.59;;;10.41;54.05
46778;BME280;32536;47.128;8.746;2023-12-29T09:36:26;91874.19;;;10.43;54.28
46778;BME280;32536;47.128;8.746;2023-12-29T09:38:53;91879.91;;;10.45;54.35
46778;BME280;32536;47.128;8.746;2023-12-29T09:41:20;91878.38;;;10.44;54.06
46778;BME280;32536;47.128;8.746;2023-12-29T09:43:51;91861.94;;;10.42;54.46
46778;BME280;32536;47.128;8.746;2023-12-29T09:46:18;91872.34;;;10.36;54.91
46778;BME280;32536;47.128;8.746;2023-12-29T09:48:46;91872.34;;;10.33;54.84
46778;BME280;32536;47.128;8.746;2023-12-29T09:51:17;91874.66;;;10.31;55.16
46778;BME280;32536;47.128;8.746;2023-12-29T09:53:49;91877.69;;;10.33;54.98
46778;BME280;32536;47.128;8.746;2023-12-29T09:56:19;91876.59;;;10.30;55.27
46778;BME280;32536;47.128;8.746;2023-12-29T09:58:47;91861.66;;;10.29;54.39
46778;BME280;32536;47.128;8.746;2023-12-29T10:01:17;91859.75;;;10.30;54.98
46778;BME280;32536;47.128;8.746;2023-12-29T10:03:48;91865.09;;;10.30;54.35
46778;BME280;32536;47.128;8.746;2023-12-29T10:06:20;91865.09;;;10.30;54.52
46778;BME280;32536;47.128;8.746;2023-12-29T10:08:50;91868.50;;;10.34;54.44
46778;BME280;32536;47.128;8.746;2023-12-29T10:11:18;91865.06;;;10.37;54.80
46778;BME280;32536;47.128;8.746;2023-12-29T10:13:50;91850.50;;;10.38;54.37
46778;BME280;32536;47.128;8.746;2023-12-29T10:16:36;91837.13;;;10.38;54.37
46778;BME280;32536;47.128;8.746;2023-12-29T10:19:33;91859.06;;;10.22;55.18
46778;BME280;32536;47.128;8.746;2023-12-29T10:22:18;91838.06;;;10.17;54.88
46778;BME280;32536;47.128;8.746;2023-12-29T10:24:50;91846.97;;;10.03;55.44
46778;BME280;32536;47.128;8.746;2023-12-29T10:27:17;91840.09;;;10.02;54.92
46778;BME280;32536;47.128;8.746;2023-12-29T10:29:44;91841.97;;;10.05;55.51
46778;BME280;32536;47.128;8.746;2023-12-29T10:32:11;91835.06;;;10.07;55.18
46778;BME280;32536;47.128;8.746;2023-12-29T10:34:38;91835.78;;;10.12;55.54
46778;BME280;32536;47.128;8.746;2023-12-29T10:37:04;91836.53;;;10.16;55.56
46778;BME280;32536;47.128;8.746;2023-12-29T10:39:35;91838.06;;;10.17;55.45
46778;BME280;32536;47.128;8.746;2023-12-29T10:44:34;91831.06;;;10.30;55.31
46778;BME280;32536;47.128;8.746;2023-12-29T10:47:11;91821.81;;;10.35;54.47
46778;BME280;32536;47.128;8.746;2023-12-29T10:49:39;91817.59;;;10.37;54.27
46778;BME280;32536;47.128;8.746;2023-12-29T10:52:14;91818.78;;;10.36;53.42
46778;BME280;32536;47.128;8.746;2023-12-29T10:54:42;91818.72;;;10.44;54.83
46778;BME280;32536;47.128;8.746;2023-12-29T10:57:12;91818.19;;;10.56;54.31
46778;BME280;32536;47.128;8.746;2023-12-29T10:59:39;91812.31;;;10.68;54.75
46778;BME280;32536;47.128;8.746;2023-12-29T11:02:06;91816.44;;;10.77;54.28
46778;BME280;32536;47.128;8.746;2023-12-29T11:04:36;91802.91;;;10.87;54.74
46778;BME280;32536;47.128;8.746;2023-12-29T11:07:03;91811.31;;;10.89;54.01
46778;BME280;32536;47.128;8.746;2023-12-29T11:09:32;91807.38;;;10.98;53.95
46778;BME280;32536;47.128;8.746;2023-12-29T11:12:01;91807.66;;;11.07;53.61
46778;BME280;32536;47.128;8.746;2023-12-29T11:14:30;91811.69;;;11.19;54.24
46778;BME280;32536;47.128;8.746;2023-12-29T11:16:59;91809.69;;;11.27;54.20
46778;BME280;32536;47.128;8.746;2023-12-29T11:19:27;91798.06;;;11.37;53.93
46778;BME280;32536;47.128;8.746;2023-12-29T11:21:56;91794.53;;;11.44;53.39
46778;BME280;32536;47.128;8.746;2023-12-29T11:24:24;91795.97;;;11.48;53.52
46778;BME280;32536;47.128;8.746;2023-12-29T11:26:52;91785.25;;;11.48;53.24
46778;BME280;32536;47.128;8.746;2023-12-29T11:29:19;91785.59;;;11.50;53.00
46778;BME280;32536;47.128;8.746;2023-12-29T11:31:47;91788.22;;;11.54;53.56
46778;BME280;32536;47.128;8.746;2023-12-29T11:34:26;91793.53;;;11.58;49.93
46778;BME280;32536;47.128;8.746;2023-12-29T11:37:18;91794.81;;;11.49;47.89
46778;BME280;32536;47.128;8.746;2023-12-29T11:40:17;91778.72;;;11.49;48.70
46778;BME280;32536;47.128;8.746;2023-12-29T11:43:16;91782.16;;;11.50;51.64
46778;BME280;32536;47.128;8.746;2023-12-29T11:45:43;91776.69;;;11.57;52.87
46778;BME280;32536;47.128;8.746;2023-12-29T11:48:11;91783.44;;;11.65;52.93
46778;BME280;32536;47.128;8.746;2023-12-29T11:50:39;91778.81;;;11.69;52.62
46778;BME280;32536;47.128;8.746;2023-12-29T11:53:07;91772.59;;;11.73;53.15
46778;BME280;32536;47.128;8.746;2023-12-29T11:55:38;91763.88;;;11.68;51.11
46778;BME280;32536;47.128;8.746;2023-12-29T11:58:26;91766.06;;;11.50;47.79
46778;BME280;32536;47.128;8.746;2023-12-29T12:00:55;91763.66;;;11.56;51.24
46778;BME280;32536;47.128;8.746;2023-12-29T12:03:26;91767.47;;;11.58;50.08
46778;BME280;32536;47.128;8.746;2023-12-29T12:05:55;91763.97;;;11.61;51.27
46778;BME280;32536;47.128;8.746;2023-12-29T12:08:34;91768.81;;;11.70;49.83
46778;BME280;32536;47.128;8.746;2023-12-29T12:13:55;91762.75;;;11.90;52.25
46778;BME280;32536;47.128;8.746;2023-12-29T12:19:15;91756.00;;;12.05;52.25
46778;BME280;32536;47.128;8.746;2023-12-29T12:21:47;91752.91;;;12.07;51.97
46778;BME280;32536;47.128;8.746;2023-12-29T12:24:18;91757.53;;;12.06;51.10
46778;BME280;32536;47.128;8.746;2023-12-29T12:26:45;91744.03;;;12.10;51.49
46778;BME280;32536;47.128;8.746;2023-12-29T12:29:13;91736.31;;;12.12;51.52
46778;BME280;32536;47.128;8.746;2023-12-29T12:34:23;91733.19;;;12.17;51.83
46778;BME280;32536;47.128;8.746;2023-12-29T12:36:51;91737.78;;;12.16;51.36
46778;BME280;32536;47.128;8.746;2023-12-29T12:39:18;91735.22;;;12.09;51.02
46778;BME280;32536;47.128;8.746;2023-12-29T12:41:46;91732.47;;;12.13;51.23
46778;BME280;32536;47.128;8.746;2023-12-29T12:44:13;91733.19;;;12.17;51.41
46778;BME280;32536;47.128;8.746;2023-12-29T12:46:48;91731.25;;;12.17;50.97
46778;BME280;32536;47.128;8.746;2023-12-29T12:49:22;91733.94;;;12.17;51.25
46778;BME280;32536;47.128;8.746;2023-12-29T12:51:49;91735.88;;;12.17;50.90
46778;BME280;32536;47.128;8.746;2023-12-29T12:54:18;91723.13;;;12.21;52.13
46778;BME280;32536;47.128;8.746;2023-12-29T12:56:46;91718.50;;;12.22;50.77
46778;BME280;32536;47.128;8.746;2023-12-29T12:59:14;91723.53;;;12.20;51.17
46778;BME280;32536;47.128;8.746;2023-12-29T13:01:42;91726.16;;;12.23;51.24
46778;BME280;32536;47.128;8.746;2023-12-29T13:04:10;91713.00;;;12.29;51.13
46778;BME280;32536;47.128;8.746;2023-12-29T13:06:40;91721.41;;;12.31;50.49
46778;BME280;32536;47.128;8.746;2023-12-29T13:09:07;91722.56;;;12.30;50.96
46778;BME280;32536;47.128;8.746;2023-12-29T13:11:37;91717.56;;;12.32;50.78
46778;BME280;32536;47.128;8.746;2023-12-29T13:14:06;91719.81;;;12.33;51.10
46778;BME280;32536;47.128;8.746;2023-12-29T13:16:37;91710.88;;;12.40;51.26
46778;BME280;32536;47.128;8.746;2023-12-29T13:19:20;91706.94;;;12.45;48.03
46778;BME280;32536;47.128;8.746;2023-12-29T13:21:50;91712.16;;;12.52;50.83
46778;BME280;32536;47.128;8.746;2023-12-29T13:24:25;91709.00;;;12.57;51.23